PWSweather.com
Personal Weather Stations
Station Observations

SkegnessGB

Lat: 53.147585, Lon: 0.345774

Elevation: 18

Station Type: Fine Offset WH3080

http://www.skegnessweather.info/

High Low Average
Temperature 55.2°F12.9°C 42.4°F5.8°C 47.1°F8.4°C
Dew Point 48.9°F9.4°C 37.0°F2.8°C 41.8°F5.4°C
Winds 27.4 mph 44.1 kmh 3.6 mph 5.8 kmh 15.0 mph SSW24.1 kmh SSW
Wind Gusts 34.2 mph55.0 kmh 4.9 mph7.9 kmh 16.0 mph25.7 kmh
Humidity 85% 74% 82%
Pressure 29.35 in993.9 mb 29.06 in984.1 mb -
Precipitation 0.14 in3.6 mm - -
Hour Temp Dew Point Humidity Winds Wind Gusts Pressure Precip Precip Rate Daily Precip Total
12:00 AM 43.3°F6.3°C 39.1°F3.9°C 85% 10.8 mph SW17.4 kmh SW 13.3 mph21.4 kmh 29.28 in991.5 mb 0.00 in0.0 mm 0.00 in0.0 mm 0.00 in0.0 mm
12:10 AM 43.3°F6.3°C 39.1°F3.9°C 85% 10.6 mph S17.1 kmh S 12.5 mph20.1 kmh 29.28 in991.5 mb 0.00 in0.0 mm 0.00 in0.0 mm 0.00 in0.0 mm
12:20 AM 43.2°F6.2°C 39.0°F3.9°C 85% 9.2 mph WSW14.8 kmh WSW 13.3 mph21.4 kmh 29.29 in991.9 mb 0.00 in0.0 mm 0.00 in0.0 mm 0.00 in0.0 mm
12:30 AM 43.2°F6.2°C 39.0°F3.9°C 85% 11.3 mph SW18.2 kmh SW 13.3 mph21.4 kmh 29.28 in991.5 mb 0.00 in0.0 mm 0.00 in0.0 mm 0.00 in0.0 mm
12:40 AM 43.2°F6.2°C 39.0°F3.9°C 85% 11.0 mph SW17.7 kmh SW 13.3 mph21.4 kmh 29.28 in991.5 mb 0.00 in0.0 mm 0.00 in0.0 mm 0.00 in0.0 mm
12:50 AM 43.2°F6.2°C 38.7°F3.7°C 84% 11.5 mph SW18.5 kmh SW 14.3 mph23.0 kmh 29.29 in991.9 mb 0.00 in0.0 mm 0.00 in0.0 mm 0.00 in0.0 mm
01:00 AM 43.2°F6.2°C 38.7°F3.7°C 84% 10.8 mph SSW17.4 kmh SSW 11.8 mph19.0 kmh 29.29 in991.9 mb 0.00 in0.0 mm 0.00 in0.0 mm 0.00 in0.0 mm
01:10 AM 43.0°F6.1°C 38.5°F3.6°C 84% 9.9 mph SW15.9 kmh SW 8.4 mph13.5 kmh 29.29 in991.9 mb 0.00 in0.0 mm 0.00 in0.0 mm 0.00 in0.0 mm
01:20 AM 43.0°F6.1°C 38.5°F3.6°C 84% 12.1 mph SSW19.5 kmh SSW 11.8 mph19.0 kmh 29.29 in991.9 mb 0.00 in0.0 mm 0.00 in0.0 mm 0.00 in0.0 mm
01:30 AM 43.0°F6.1°C 38.5°F3.6°C 84% 12.3 mph SSW19.8 kmh SSW 16.7 mph26.9 kmh 29.29 in991.9 mb 0.00 in0.0 mm 0.00 in0.0 mm 0.00 in0.0 mm
01:40 AM 42.8°F6.0°C 38.3°F3.5°C 84% 10.8 mph SSW17.4 kmh SSW 10.8 mph17.4 kmh 29.29 in991.9 mb 0.00 in0.0 mm 0.00 in0.0 mm 0.00 in0.0 mm
01:50 AM 42.8°F6.0°C 38.3°F3.5°C 84% 11.3 mph SSW18.2 kmh SSW 14.3 mph23.0 kmh 29.30 in992.2 mb 0.00 in0.0 mm 0.00 in0.0 mm 0.00 in0.0 mm
02:00 AM 42.8°F6.0°C 38.3°F3.5°C 84% 10.5 mph SSW16.9 kmh SSW 11.8 mph19.0 kmh 29.30 in992.2 mb 0.00 in0.0 mm 0.00 in0.0 mm 0.00 in0.0 mm
02:10 AM 42.8°F6.0°C 38.3°F3.5°C 84% 10.7 mph SW17.2 kmh SW 12.5 mph20.1 kmh 29.30 in992.2 mb 0.00 in0.0 mm 0.00 in0.0 mm 0.00 in0.0 mm
02:20 AM 42.8°F6.0°C 38.3°F3.5°C 84% 12.3 mph S19.8 kmh S 15.0 mph24.1 kmh 29.29 in991.9 mb 0.00 in0.0 mm 0.00 in0.0 mm 0.00 in0.0 mm
02:30 AM 42.8°F6.0°C 38.3°F3.5°C 84% 13.6 mph S21.9 kmh S 12.5 mph20.1 kmh 29.30 in992.2 mb 0.00 in0.0 mm 0.00 in0.0 mm 0.00 in0.0 mm
02:40 AM 43.0°F6.1°C 38.5°F3.6°C 84% 14.7 mph S23.7 kmh S 15.0 mph24.1 kmh 29.30 in992.2 mb 0.00 in0.0 mm 0.00 in0.0 mm 0.00 in0.0 mm
02:50 AM 43.0°F6.1°C 38.5°F3.6°C 84% 13.1 mph S21.1 kmh S 13.3 mph21.4 kmh 29.30 in992.2 mb 0.00 in0.0 mm 0.00 in0.0 mm 0.00 in0.0 mm
03:00 AM 43.0°F6.1°C 38.5°F3.6°C 84% 11.5 mph SW18.5 kmh SW 11.8 mph19.0 kmh 29.30 in992.2 mb 0.00 in0.0 mm 0.00 in0.0 mm 0.00 in0.0 mm
03:10 AM 43.0°F6.1°C 38.5°F3.6°C 84% 10.3 mph SW16.6 kmh SW 9.1 mph14.6 kmh 29.31 in992.6 mb 0.00 in0.0 mm 0.00 in0.0 mm 0.00 in0.0 mm
03:20 AM 43.0°F6.1°C 38.5°F3.6°C 84% 11.7 mph SW18.8 kmh SW 10.8 mph17.4 kmh 29.31 in992.6 mb 0.00 in0.0 mm 0.00 in0.0 mm 0.00 in0.0 mm
03:30 AM 43.0°F6.1°C 38.5°F3.6°C 84% 13.1 mph SSW21.1 kmh SSW 14.3 mph23.0 kmh 29.31 in992.6 mb 0.00 in0.0 mm 0.00 in0.0 mm 0.00 in0.0 mm
03:40 AM 43.0°F6.1°C 38.5°F3.6°C 84% 11.7 mph SSW18.8 kmh SSW 13.3 mph21.4 kmh 29.31 in992.6 mb 0.00 in0.0 mm 0.00 in0.0 mm 0.00 in0.0 mm
03:50 AM 43.0°F6.1°C 38.5°F3.6°C 84% 12.8 mph SSW20.6 kmh SSW 15.0 mph24.1 kmh 29.31 in992.6 mb 0.00 in0.0 mm 0.00 in0.0 mm 0.00 in0.0 mm
04:00 AM 42.8°F6.0°C 38.3°F3.5°C 84% 12.1 mph S19.5 kmh S 12.5 mph20.1 kmh 29.31 in992.6 mb 0.00 in0.0 mm 0.00 in0.0 mm 0.00 in0.0 mm
04:10 AM 42.8°F6.0°C 38.3°F3.5°C 84% 11.8 mph SSW19.0 kmh SSW 10.8 mph17.4 kmh 29.32 in992.9 mb 0.00 in0.0 mm 0.00 in0.0 mm 0.00 in0.0 mm
04:20 AM 42.6°F5.9°C 38.1°F3.4°C 84% 11.8 mph S19.0 kmh S 10.8 mph17.4 kmh 29.32 in992.9 mb 0.00 in0.0 mm 0.00 in0.0 mm 0.00 in0.0 mm
04:30 AM 42.6°F5.9°C 38.1°F3.4°C 84% 11.9 mph SSE19.2 kmh SSE 10.8 mph17.4 kmh 29.32 in992.9 mb 0.00 in0.0 mm 0.00 in0.0 mm 0.00 in0.0 mm
04:40 AM 42.6°F5.9°C 38.1°F3.4°C 84% 11.6 mph S18.7 kmh S 12.5 mph20.1 kmh 29.32 in992.9 mb 0.00 in0.0 mm 0.00 in0.0 mm 0.00 in0.0 mm
04:50 AM 42.8°F6.0°C 38.3°F3.5°C 84% 9.5 mph S15.3 kmh S 10.1 mph16.3 kmh 29.33 in993.2 mb 0.00 in0.0 mm 0.00 in0.0 mm 0.00 in0.0 mm
05:00 AM 42.6°F5.9°C 38.1°F3.4°C 84% 8.5 mph SW13.7 kmh SW 9.1 mph14.6 kmh 29.33 in993.2 mb 0.00 in0.0 mm 0.00 in0.0 mm 0.00 in0.0 mm
05:10 AM 42.4°F5.8°C 37.9°F3.3°C 84% 9.0 mph SW14.5 kmh SW 10.1 mph16.3 kmh 29.34 in993.6 mb 0.00 in0.0 mm 0.00 in0.0 mm 0.00 in0.0 mm
05:20 AM 42.4°F5.8°C 37.9°F3.3°C 84% 9.4 mph S15.1 kmh S 8.4 mph13.5 kmh 29.34 in993.6 mb 0.00 in0.0 mm 0.00 in0.0 mm 0.00 in0.0 mm
05:30 AM 42.6°F5.9°C 38.1°F3.4°C 84% 11.2 mph SSW18.0 kmh SSW 10.8 mph17.4 kmh 29.34 in993.6 mb 0.00 in0.0 mm 0.00 in0.0 mm 0.00 in0.0 mm
05:40 AM 42.8°F6.0°C 38.3°F3.5°C 84% 11.0 mph SSW17.7 kmh SSW 11.8 mph19.0 kmh 29.34 in993.6 mb 0.00 in0.0 mm 0.00 in0.0 mm 0.00 in0.0 mm
05:50 AM 42.6°F5.9°C 38.1°F3.4°C 84% 10.4 mph WSW16.7 kmh WSW 10.8 mph17.4 kmh 29.34 in993.6 mb 0.00 in0.0 mm 0.00 in0.0 mm 0.00 in0.0 mm
06:00 AM 42.6°F5.9°C 38.1°F3.4°C 84% 11.1 mph SW17.9 kmh SW 12.5 mph20.1 kmh 29.34 in993.6 mb 0.00 in0.0 mm 0.00 in0.0 mm 0.00 in0.0 mm
06:10 AM 42.6°F5.9°C 37.8°F3.2°C 83% 11.2 mph SW18.0 kmh SW 12.5 mph20.1 kmh 29.34 in993.6 mb 0.00 in0.0 mm 0.00 in0.0 mm 0.00 in0.0 mm
06:20 AM 43.0°F6.1°C 38.2°F3.4°C 83% 15.3 mph SSE24.6 kmh SSE 16.7 mph26.9 kmh 29.33 in993.2 mb 0.00 in0.0 mm 0.00 in0.0 mm 0.00 in0.0 mm
06:30 AM 43.0°F6.1°C 38.2°F3.4°C 83% 12.7 mph SW20.4 kmh SW 14.3 mph23.0 kmh 29.34 in993.6 mb 0.00 in0.0 mm 0.00 in0.0 mm 0.00 in0.0 mm
06:40 AM 42.8°F6.0°C 38.0°F3.3°C 83% 11.1 mph WSW17.9 kmh WSW 11.8 mph19.0 kmh 29.34 in993.6 mb 0.00 in0.0 mm 0.00 in0.0 mm 0.00 in0.0 mm
06:50 AM 42.8°F6.0°C 38.0°F3.3°C 83% 11.3 mph SW18.2 kmh SW 11.8 mph19.0 kmh 29.34 in993.6 mb 0.00 in0.0 mm 0.00 in0.0 mm 0.00 in0.0 mm
07:00 AM 42.6°F5.9°C 37.8°F3.2°C 83% 9.7 mph SSW15.6 kmh SSW 10.8 mph17.4 kmh 29.35 in993.9 mb 0.00 in0.0 mm 0.00 in0.0 mm 0.00 in0.0 mm
07:10 AM 42.4°F5.8°C 37.6°F3.1°C 83% 10.6 mph S17.1 kmh S 10.8 mph17.4 kmh 29.34 in993.6 mb 0.00 in0.0 mm 0.00 in0.0 mm 0.00 in0.0 mm
07:20 AM 42.6°F5.9°C 37.8°F3.2°C 83% 12.7 mph S20.4 kmh S 13.3 mph21.4 kmh 29.34 in993.6 mb 0.00 in0.0 mm 0.00 in0.0 mm 0.00 in0.0 mm
07:30 AM 42.8°F6.0°C 38.0°F3.3°C 83% 16.1 mph S25.9 kmh S 14.3 mph23.0 kmh 29.35 in993.9 mb 0.00 in0.0 mm 0.00 in0.0 mm 0.00 in0.0 mm
07:40 AM 42.8°F6.0°C 38.0°F3.3°C 83% 14.7 mph SSW23.7 kmh SSW 15.0 mph24.1 kmh 29.35 in993.9 mb 0.00 in0.0 mm 0.00 in0.0 mm 0.00 in0.0 mm
07:50 AM 42.8°F6.0°C 38.0°F3.3°C 83% 13.8 mph W22.2 kmh W 13.3 mph21.4 kmh 29.34 in993.6 mb 0.00 in0.0 mm 0.00 in0.0 mm 0.00 in0.0 mm
08:00 AM 42.8°F6.0°C 38.0°F3.3°C 83% 12.9 mph SW20.8 kmh SW 14.3 mph23.0 kmh 29.34 in993.6 mb 0.00 in0.0 mm 0.00 in0.0 mm 0.00 in0.0 mm
08:10 AM 42.6°F5.9°C 37.8°F3.2°C 83% 13.9 mph S22.4 kmh S 14.3 mph23.0 kmh 29.35 in993.9 mb 0.00 in0.0 mm 0.00 in0.0 mm 0.00 in0.0 mm
08:20 AM 42.6°F5.9°C 37.8°F3.2°C 83% 12.0 mph SW19.3 kmh SW 11.8 mph19.0 kmh 29.34 in993.6 mb 0.00 in0.0 mm 0.00 in0.0 mm 0.00 in0.0 mm
08:30 AM 42.6°F5.9°C 37.5°F3.1°C 82% 12.4 mph S20.0 kmh S 12.5 mph20.1 kmh 29.34 in993.6 mb 0.00 in0.0 mm 0.00 in0.0 mm 0.00 in0.0 mm
08:40 AM 42.6°F5.9°C 37.5°F3.1°C 82% 11.4 mph S18.3 kmh S 10.8 mph17.4 kmh 29.35 in993.9 mb 0.00 in0.0 mm 0.00 in0.0 mm 0.00 in0.0 mm
08:50 AM 42.6°F5.9°C 37.5°F3.1°C 82% 12.2 mph S19.6 kmh S 13.3 mph21.4 kmh 29.35 in993.9 mb 0.00 in0.0 mm 0.00 in0.0 mm 0.00 in0.0 mm
09:00 AM 42.6°F5.9°C 37.5°F3.1°C 82% 12.6 mph S20.3 kmh S 13.3 mph21.4 kmh 29.34 in993.6 mb 0.00 in0.0 mm 0.00 in0.0 mm 0.00 in0.0 mm
09:10 AM 43.0°F6.1°C 37.9°F3.3°C 82% 13.4 mph S21.6 kmh S 18.5 mph29.8 kmh 29.35 in993.9 mb 0.00 in0.0 mm 0.00 in0.0 mm 0.00 in0.0 mm
09:20 AM 43.0°F6.1°C 37.9°F3.3°C 82% 12.4 mph SSW20.0 kmh SSW 13.3 mph21.4 kmh 29.35 in993.9 mb 0.00 in0.0 mm 0.00 in0.0 mm 0.00 in0.0 mm
09:30 AM 43.3°F6.3°C 38.2°F3.4°C 82% 12.8 mph S20.6 kmh S 14.3 mph23.0 kmh 29.34 in993.6 mb 0.00 in0.0 mm 0.00 in0.0 mm 0.00 in0.0 mm
09:40 AM 43.7°F6.5°C 38.6°F3.7°C 82% 16.2 mph S26.1 kmh S 16.7 mph26.9 kmh 29.34 in993.6 mb 0.00 in0.0 mm 0.00 in0.0 mm 0.00 in0.0 mm
09:50 AM 43.9°F6.6°C 38.4°F3.6°C 81% 16.4 mph SW26.4 kmh SW 18.5 mph29.8 kmh 29.34 in993.6 mb 0.00 in0.0 mm 0.00 in0.0 mm 0.00 in0.0 mm
10:00 AM 44.2°F6.8°C 38.8°F3.8°C 81% 14.2 mph SSW22.9 kmh SSW 14.3 mph23.0 kmh 29.34 in993.6 mb 0.00 in0.0 mm 0.00 in0.0 mm 0.00 in0.0 mm
10:10 AM 44.6°F7.0°C 37.2°F2.9°C 75% 15.6 mph S25.1 kmh S 14.3 mph23.0 kmh 29.34 in993.6 mb 0.00 in0.0 mm 0.00 in0.0 mm 0.00 in0.0 mm
10:20 AM 44.8°F7.1°C 37.0°F2.8°C 74% 15.2 mph SSW24.5 kmh SSW 15.0 mph24.1 kmh 29.34 in993.6 mb 0.00 in0.0 mm 0.00 in0.0 mm 0.00 in0.0 mm
10:30 AM 45.0°F7.2°C 37.2°F2.9°C 74% 17.8 mph S28.6 kmh S 17.5 mph28.2 kmh 29.32 in992.9 mb 0.00 in0.0 mm 0.00 in0.0 mm 0.00 in0.0 mm
10:40 AM 45.0°F7.2°C 37.2°F2.9°C 74% 20.9 mph S33.6 kmh S 21.7 mph34.9 kmh 29.33 in993.2 mb 0.00 in0.0 mm 0.00 in0.0 mm 0.00 in0.0 mm
10:50 AM 45.0°F7.2°C 37.5°F3.1°C 75% 19.6 mph S31.5 kmh S 20.2 mph32.5 kmh 29.32 in992.9 mb 0.00 in0.0 mm 0.00 in0.0 mm 0.00 in0.0 mm
11:00 AM 45.1°F7.3°C 37.3°F2.9°C 74% 17.7 mph SE28.5 kmh SE 18.5 mph29.8 kmh 29.32 in992.9 mb 0.00 in0.0 mm 0.00 in0.0 mm 0.00 in0.0 mm
11:10 AM 45.5°F7.5°C 37.7°F3.2°C 74% 19.0 mph SSE30.6 kmh SSE 19.2 mph30.9 kmh 29.31 in992.6 mb 0.00 in0.0 mm 0.00 in0.0 mm 0.00 in0.0 mm
11:20 AM 45.5°F7.5°C 38.0°F3.3°C 75% 20.0 mph S32.2 kmh S 20.2 mph32.5 kmh 29.31 in992.6 mb 0.00 in0.0 mm 0.00 in0.0 mm 0.00 in0.0 mm
11:30 AM 45.5°F7.5°C 38.0°F3.3°C 75% 19.3 mph S31.1 kmh S 17.5 mph28.2 kmh 29.31 in992.6 mb 0.00 in0.0 mm 0.00 in0.0 mm 0.00 in0.0 mm
11:40 AM 45.5°F7.5°C 38.4°F3.6°C 76% 18.6 mph SSE29.9 kmh SSE 19.2 mph30.9 kmh 29.30 in992.2 mb 0.00 in0.0 mm 0.00 in0.0 mm 0.00 in0.0 mm
11:50 AM 45.5°F7.5°C 38.4°F3.6°C 76% 18.3 mph S29.5 kmh S 18.5 mph29.8 kmh 29.29 in991.9 mb 0.00 in0.0 mm 0.00 in0.0 mm 0.00 in0.0 mm
12:00 PM 45.7°F7.6°C 38.9°F3.8°C 77% 18.0 mph SSE29.0 kmh SSE 17.5 mph28.2 kmh 29.29 in991.9 mb 0.00 in0.0 mm 0.00 in0.0 mm 0.00 in0.0 mm
12:10 PM 45.9°F7.7°C 39.1°F3.9°C 77% 19.2 mph SSE30.9 kmh SSE 16.7 mph26.9 kmh 29.28 in991.5 mb 0.00 in0.0 mm 0.00 in0.0 mm 0.00 in0.0 mm
12:20 PM 46.0°F7.8°C 39.2°F4.0°C 77% 18.9 mph SSE30.4 kmh SSE 18.5 mph29.8 kmh 29.26 in990.9 mb 0.00 in0.0 mm 0.00 in0.0 mm 0.00 in0.0 mm
12:30 PM 46.0°F7.8°C 39.6°F4.2°C 78% 21.0 mph SE33.8 kmh SE 19.2 mph30.9 kmh 29.25 in990.5 mb 0.00 in0.0 mm 0.00 in0.0 mm 0.00 in0.0 mm
12:40 PM 46.0°F7.8°C 40.2°F4.6°C 80% 19.4 mph SSE31.2 kmh SSE 20.2 mph32.5 kmh 29.24 in990.2 mb 0.00 in0.0 mm 0.00 in0.0 mm 0.00 in0.0 mm
12:50 PM 46.0°F7.8°C 40.2°F4.6°C 80% 18.1 mph SSE29.1 kmh SSE 19.2 mph30.9 kmh 29.23 in989.8 mb 0.01 in0.3 mm 0.06 in1.5 mm 0.01 in0.3 mm
01:00 PM 46.0°F7.8°C 40.5°F4.7°C 81% 16.9 mph SE27.2 kmh SE 17.5 mph28.2 kmh 29.22 in989.5 mb 0.01 in0.3 mm 0.00 in0.0 mm 0.01 in0.3 mm
01:10 PM 46.0°F7.8°C 40.9°F4.9°C 82% 16.9 mph S27.2 kmh S 16.0 mph25.7 kmh 29.21 in989.2 mb 0.01 in0.3 mm 0.00 in0.0 mm 0.01 in0.3 mm
01:20 PM 46.2°F7.9°C 41.0°F5.0°C 82% 16.8 mph SSE27.0 kmh SSE 17.5 mph28.2 kmh 29.20 in988.8 mb 0.01 in0.3 mm 0.00 in0.0 mm 0.01 in0.3 mm
01:30 PM 46.2°F7.9°C 41.3°F5.2°C 83% 16.3 mph S26.2 kmh S 22.6 mph36.4 kmh 29.18 in988.1 mb 0.01 in0.3 mm 0.00 in0.0 mm 0.01 in0.3 mm
01:40 PM 46.2°F7.9°C 41.3°F5.2°C 83% 16.9 mph S27.2 kmh S 16.7 mph26.9 kmh 29.17 in987.8 mb 0.01 in0.3 mm 0.00 in0.0 mm 0.01 in0.3 mm
01:50 PM 46.4°F8.0°C 41.8°F5.4°C 84% 15.6 mph SSE25.1 kmh SSE 20.2 mph32.5 kmh 29.16 in987.5 mb 0.00 in0.0 mm 0.00 in0.0 mm 0.01 in0.3 mm
02:00 PM 46.8°F8.2°C 42.2°F5.7°C 84% 18.4 mph SSE29.6 kmh SSE 18.5 mph29.8 kmh 29.14 in986.8 mb 0.00 in0.0 mm 0.00 in0.0 mm 0.01 in0.3 mm
02:10 PM 47.3°F8.5°C 42.7°F5.9°C 84% 22.0 mph SSE35.4 kmh SSE 19.2 mph30.9 kmh 29.13 in986.5 mb 0.00 in0.0 mm 0.00 in0.0 mm 0.01 in0.3 mm
02:20 PM 47.7°F8.7°C 43.1°F6.2°C 84% 24.3 mph SE39.1 kmh SE 24.4 mph39.3 kmh 29.12 in986.1 mb 0.00 in0.0 mm 0.00 in0.0 mm 0.01 in0.3 mm
02:30 PM 48.2°F9.0°C 43.3°F6.3°C 83% 25.7 mph S41.4 kmh S 22.6 mph36.4 kmh 29.11 in985.8 mb 0.00 in0.0 mm 0.00 in0.0 mm 0.01 in0.3 mm
02:40 PM 48.7°F9.3°C 43.8°F6.6°C 83% 26.9 mph S43.3 kmh S 26.8 mph43.1 kmh 29.10 in985.4 mb 0.00 in0.0 mm 0.00 in0.0 mm 0.01 in0.3 mm
02:50 PM 49.3°F9.6°C 44.0°F6.7°C 82% 27.4 mph SSE44.1 kmh SSE 26.8 mph43.1 kmh 29.09 in985.1 mb 0.00 in0.0 mm 0.00 in0.0 mm 0.01 in0.3 mm
03:00 PM 49.8°F9.9°C 44.5°F6.9°C 82% 26.7 mph S43.0 kmh S 23.4 mph37.7 kmh 29.09 in985.1 mb 0.00 in0.0 mm 0.00 in0.0 mm 0.01 in0.3 mm
03:10 PM 50.4°F10.2°C 45.4°F7.4°C 83% 27.0 mph S43.5 kmh S 24.4 mph39.3 kmh 29.09 in985.1 mb 0.00 in0.0 mm 0.00 in0.0 mm 0.01 in0.3 mm
03:20 PM 51.3°F10.7°C 46.0°F7.8°C 82% 27.0 mph S43.5 kmh S 28.5 mph45.9 kmh 29.07 in984.4 mb 0.00 in0.0 mm 0.00 in0.0 mm 0.01 in0.3 mm
03:30 PM 52.0°F11.1°C 46.7°F8.2°C 82% 25.7 mph S41.4 kmh S 28.5 mph45.9 kmh 29.07 in984.4 mb 0.00 in0.0 mm 0.00 in0.0 mm 0.01 in0.3 mm
03:40 PM 52.3°F11.3°C 47.0°F8.3°C 82% 23.4 mph S37.7 kmh S 24.4 mph39.3 kmh 29.06 in984.1 mb 0.00 in0.0 mm 0.00 in0.0 mm 0.01 in0.3 mm
03:50 PM 52.5°F11.4°C 47.2°F8.4°C 82% 23.4 mph S37.7 kmh S 25.8 mph41.5 kmh 29.06 in984.1 mb 0.00 in0.0 mm 0.00 in0.0 mm 0.01 in0.3 mm
04:00 PM 52.9°F11.6°C 47.5°F8.6°C 82% 22.4 mph SSE36.0 kmh SSE 26.8 mph43.1 kmh 29.06 in984.1 mb 0.00 in0.0 mm 0.00 in0.0 mm 0.01 in0.3 mm
04:10 PM 53.6°F12.0°C 47.2°F8.4°C 79% 25.7 mph S41.4 kmh S 23.4 mph37.7 kmh 29.07 in984.4 mb 0.00 in0.0 mm 0.00 in0.0 mm 0.01 in0.3 mm
04:20 PM 54.3°F12.4°C 47.9°F8.8°C 79% 26.3 mph S42.3 kmh S 25.8 mph41.5 kmh 29.07 in984.4 mb 0.00 in0.0 mm 0.00 in0.0 mm 0.01 in0.3 mm
04:30 PM 54.7°F12.6°C 48.0°F8.9°C 78% 22.5 mph SSE36.2 kmh SSE 21.7 mph34.9 kmh 29.07 in984.4 mb 0.00 in0.0 mm 0.00 in0.0 mm 0.01 in0.3 mm
04:40 PM 54.9°F12.7°C 47.8°F8.8°C 77% 23.4 mph S37.7 kmh S 27.6 mph44.4 kmh 29.07 in984.4 mb 0.00 in0.0 mm 0.00 in0.0 mm 0.01 in0.3 mm
04:50 PM 55.0°F12.8°C 48.3°F9.1°C 78% 22.9 mph S36.9 kmh S 22.6 mph36.4 kmh 29.08 in984.8 mb 0.00 in0.0 mm 0.00 in0.0 mm 0.01 in0.3 mm
05:00 PM 55.0°F12.8°C 48.3°F9.1°C 78% 21.3 mph SSE34.3 kmh SSE 20.9 mph33.6 kmh 29.08 in984.8 mb 0.00 in0.0 mm 0.00 in0.0 mm 0.01 in0.3 mm
05:10 PM 55.0°F12.8°C 48.3°F9.1°C 78% 21.7 mph NW34.9 kmh NW 21.7 mph34.9 kmh 29.07 in984.4 mb 0.00 in0.0 mm 0.00 in0.0 mm 0.01 in0.3 mm
05:20 PM 55.2°F12.9°C 48.1°F8.9°C 77% 24.0 mph S38.6 kmh S 22.6 mph36.4 kmh 29.08 in984.8 mb 0.00 in0.0 mm 0.00 in0.0 mm 0.01 in0.3 mm
05:30 PM 55.0°F12.8°C 47.6°F8.7°C 76% 24.7 mph SE39.8 kmh SE 30.0 mph48.3 kmh 29.08 in984.8 mb 0.00 in0.0 mm 0.00 in0.0 mm 0.01 in0.3 mm
05:40 PM 54.9°F12.7°C 48.1°F8.9°C 78% 26.2 mph S42.2 kmh S 24.4 mph39.3 kmh 29.09 in985.1 mb 0.00 in0.0 mm 0.00 in0.0 mm 0.01 in0.3 mm
05:50 PM 54.3°F12.4°C 48.6°F9.2°C 81% 25.6 mph SSE41.2 kmh SSE 34.2 mph55.0 kmh 29.10 in985.4 mb 0.01 in0.3 mm 0.06 in1.5 mm 0.02 in0.5 mm
06:00 PM 54.0°F12.2°C 48.6°F9.2°C 82% 22.6 mph SSE36.4 kmh SSE 27.6 mph44.4 kmh 29.11 in985.8 mb 0.01 in0.3 mm 0.00 in0.0 mm 0.02 in0.5 mm
06:10 PM 53.8°F12.1°C 48.7°F9.3°C 83% 22.3 mph SSW35.9 kmh SSW 26.8 mph43.1 kmh 29.11 in985.8 mb 0.01 in0.3 mm 0.00 in0.0 mm 0.02 in0.5 mm
06:20 PM 54.0°F12.2°C 48.9°F9.4°C 83% 21.3 mph WSW34.3 kmh WSW 21.7 mph34.9 kmh 29.11 in985.8 mb 0.01 in0.3 mm 0.00 in0.0 mm 0.02 in0.5 mm
06:30 PM 53.8°F12.1°C 48.7°F9.3°C 83% 18.2 mph S29.3 kmh S 17.5 mph28.2 kmh 29.12 in986.1 mb 0.01 in0.3 mm 0.00 in0.0 mm 0.02 in0.5 mm
06:40 PM 53.6°F12.0°C 48.6°F9.2°C 83% 17.5 mph S28.2 kmh S 19.2 mph30.9 kmh 29.13 in986.5 mb 0.01 in0.3 mm 0.00 in0.0 mm 0.02 in0.5 mm
06:50 PM 53.6°F12.0°C 48.2°F9.0°C 82% 16.9 mph SW27.2 kmh SW 17.5 mph28.2 kmh 29.14 in986.8 mb 0.00 in0.0 mm 0.00 in0.0 mm 0.02 in0.5 mm
07:00 PM 53.6°F12.0°C 48.2°F9.0°C 82% 17.5 mph SW28.2 kmh SW 18.5 mph29.8 kmh 29.14 in986.8 mb 0.01 in0.3 mm 0.01 in0.3 mm 0.04 in1.0 mm
07:10 PM 53.2°F11.8°C 48.5°F9.2°C 84% 18.0 mph SW29.0 kmh SW 18.5 mph29.8 kmh 29.15 in987.1 mb 0.02 in0.5 mm 0.06 in1.5 mm 0.05 in1.3 mm
07:20 PM 52.7°F11.5°C 48.0°F8.9°C 84% 15.6 mph SSW25.1 kmh SSW 15.0 mph24.1 kmh 29.15 in987.1 mb 0.02 in0.5 mm 0.00 in0.0 mm 0.05 in1.3 mm
07:30 PM 52.5°F11.4°C 47.8°F8.8°C 84% 14.4 mph SW23.2 kmh SW 15.0 mph24.1 kmh 29.15 in987.1 mb 0.04 in1.0 mm 0.12 in3.0 mm 0.06 in1.5 mm
07:40 PM 52.5°F11.4°C 48.1°F8.9°C 85% 17.1 mph SW27.5 kmh SW 18.5 mph29.8 kmh 29.15 in987.1 mb 0.04 in1.0 mm 0.00 in0.0 mm 0.06 in1.5 mm
07:50 PM 52.5°F11.4°C 47.8°F8.8°C 84% 18.5 mph WSW29.8 kmh WSW 20.2 mph32.5 kmh 29.16 in987.5 mb 0.05 in1.3 mm 0.06 in1.5 mm 0.07 in1.8 mm
08:00 PM 52.3°F11.3°C 47.6°F8.7°C 84% 16.3 mph SSW26.2 kmh SSW 16.7 mph26.9 kmh 29.17 in987.8 mb 0.05 in1.3 mm 0.00 in0.0 mm 0.08 in2.0 mm
08:10 PM 52.2°F11.2°C 47.5°F8.6°C 84% 16.1 mph SW25.9 kmh SW 19.2 mph30.9 kmh 29.18 in988.1 mb 0.04 in1.0 mm 0.00 in0.0 mm 0.08 in2.0 mm
08:20 PM 52.0°F11.1°C 47.3°F8.5°C 84% 15.0 mph SSW24.1 kmh SSW 16.0 mph25.7 kmh 29.19 in988.5 mb 0.04 in1.0 mm 0.00 in0.0 mm 0.08 in2.0 mm
08:30 PM 52.0°F11.1°C 47.3°F8.5°C 84% 13.6 mph SSW21.9 kmh SSW 16.0 mph25.7 kmh 29.19 in988.5 mb 0.02 in0.5 mm 0.00 in0.0 mm 0.08 in2.0 mm
08:40 PM 51.8°F11.0°C 47.1°F8.4°C 84% 15.2 mph SSW24.5 kmh SSW 16.7 mph26.9 kmh 29.19 in988.5 mb 0.04 in1.0 mm 0.12 in3.0 mm 0.09 in2.3 mm
08:50 PM 51.6°F10.9°C 46.9°F8.3°C 84% 13.2 mph W21.2 kmh W 14.3 mph23.0 kmh 29.20 in988.8 mb 0.02 in0.5 mm 0.00 in0.0 mm 0.09 in2.3 mm
09:00 PM 51.4°F10.8°C 46.8°F8.2°C 84% 11.1 mph SW17.9 kmh SW 10.8 mph17.4 kmh 29.20 in988.8 mb 0.02 in0.5 mm 0.00 in0.0 mm 0.11 in2.8 mm
09:10 PM 51.6°F10.9°C 47.3°F8.5°C 85% 11.7 mph W18.8 kmh W 16.0 mph25.7 kmh 29.21 in989.2 mb 0.02 in0.5 mm 0.00 in0.0 mm 0.11 in2.8 mm
09:20 PM 51.6°F10.9°C 47.3°F8.5°C 85% 12.7 mph S20.4 kmh S 14.3 mph23.0 kmh 29.21 in989.2 mb 0.02 in0.5 mm 0.00 in0.0 mm 0.11 in2.8 mm
09:30 PM 51.6°F10.9°C 47.3°F8.5°C 85% 12.4 mph S20.0 kmh S 15.0 mph24.1 kmh 29.22 in989.5 mb 0.02 in0.5 mm 0.00 in0.0 mm 0.11 in2.8 mm
09:40 PM 51.8°F11.0°C 47.4°F8.6°C 85% 13.2 mph SSW21.2 kmh SSW 15.0 mph24.1 kmh 29.23 in989.8 mb 0.01 in0.3 mm 0.00 in0.0 mm 0.11 in2.8 mm
09:50 PM 51.8°F11.0°C 47.1°F8.4°C 84% 12.9 mph SW20.8 kmh SW 15.0 mph24.1 kmh 29.23 in989.8 mb 0.01 in0.3 mm 0.00 in0.0 mm 0.11 in2.8 mm
10:00 PM 51.8°F11.0°C 47.1°F8.4°C 84% 12.7 mph S20.4 kmh S 15.0 mph24.1 kmh 29.24 in990.2 mb 0.00 in0.0 mm 0.00 in0.0 mm 0.11 in2.8 mm
10:10 PM 51.8°F11.0°C 47.1°F8.4°C 84% 13.1 mph WSW21.1 kmh WSW 15.0 mph24.1 kmh 29.25 in990.5 mb 0.00 in0.0 mm 0.00 in0.0 mm 0.11 in2.8 mm
10:20 PM 51.8°F11.0°C 46.5°F8.1°C 82% 16.3 mph WSW26.2 kmh WSW 17.5 mph28.2 kmh 29.25 in990.5 mb 0.00 in0.0 mm 0.00 in0.0 mm 0.11 in2.8 mm
10:30 PM 51.8°F11.0°C 45.8°F7.7°C 80% 14.8 mph SW23.8 kmh SW 16.0 mph25.7 kmh 29.26 in990.9 mb 0.00 in0.0 mm 0.00 in0.0 mm 0.11 in2.8 mm
10:40 PM 51.8°F11.0°C 45.5°F7.5°C 79% 12.3 mph SW19.8 kmh SW 12.5 mph20.1 kmh 29.27 in991.2 mb 0.00 in0.0 mm 0.00 in0.0 mm 0.11 in2.8 mm
10:50 PM 51.4°F10.8°C 45.5°F7.5°C 80% 8.4 mph SW13.5 kmh SW 9.1 mph14.6 kmh 29.28 in991.5 mb 0.00 in0.0 mm 0.00 in0.0 mm 0.11 in2.8 mm
11:00 PM 50.4°F10.2°C 44.4°F6.9°C 80% 8.8 mph SSW14.2 kmh SSW 11.8 mph19.0 kmh 29.29 in991.9 mb 0.01 in0.3 mm 0.01 in0.3 mm 0.12 in3.0 mm
11:10 PM 49.3°F9.6°C 43.4°F6.3°C 80% 6.6 mph WSW10.6 kmh WSW 8.4 mph13.5 kmh 29.29 in991.9 mb 0.01 in0.3 mm 0.00 in0.0 mm 0.12 in3.0 mm
11:20 PM 48.6°F9.2°C 43.0°F6.1°C 81% 5.9 mph WSW9.5 kmh WSW 6.6 mph10.6 kmh 29.30 in992.2 mb 0.02 in0.5 mm 0.06 in1.5 mm 0.13 in3.3 mm
11:30 PM 48.2°F9.0°C 42.6°F5.9°C 81% 5.6 mph SSW9.0 kmh SSW 5.9 mph9.5 kmh 29.29 in991.9 mb 0.02 in0.5 mm 0.00 in0.0 mm 0.13 in3.3 mm
11:40 PM 48.0°F8.9°C 42.8°F6.0°C 82% 4.4 mph SW7.1 kmh SW 4.9 mph7.9 kmh 29.31 in992.6 mb 0.02 in0.5 mm 0.00 in0.0 mm 0.13 in3.3 mm
11:50 PM 48.0°F8.9°C 42.8°F6.0°C 82% 3.6 mph SW5.8 kmh SW 4.9 mph7.9 kmh 29.31 in992.6 mb 0.04 in1.0 mm 0.12 in3.0 mm 0.14 in3.6 mm